createdAt,value
2019-05-14T00:03:48.836Z,7.97
2019-05-14T00:08:42.290Z,8.85
2019-05-14T00:13:35.885Z,8.35
2019-05-14T00:18:31.492Z,9.25
2019-05-14T00:23:24.709Z,7.55
2019-05-14T00:28:18.198Z,10.72
2019-05-14T00:33:11.994Z,7.13
2019-05-14T00:38:05.540Z,8.03
2019-05-14T00:42:59.138Z,8.00
2019-05-14T00:47:52.702Z,7.50
2019-05-14T00:52:46.526Z,11.73
2019-05-14T00:57:42.266Z,10.58
2019-05-14T01:02:35.877Z,9.88
2019-05-14T01:07:31.616Z,7.28
2019-05-14T01:12:25.004Z,8.00
2019-05-14T01:17:18.556Z,7.05
2019-05-14T01:22:12.622Z,8.57
2019-05-14T01:27:07.211Z,10.35
2019-05-14T01:32:01.292Z,9.17
2019-05-14T01:36:54.993Z,7.57
2019-05-14T01:41:48.556Z,9.60
2019-05-14T01:46:42.368Z,6.70
2019-05-14T01:51:36.187Z,11.03
2019-05-14T01:56:31.888Z,6.37
2019-05-14T02:01:25.263Z,12.17
2019-05-14T02:06:21.111Z,9.37
2019-05-14T02:11:13.943Z,8.63
2019-05-14T02:16:07.553Z,9.45
2019-05-14T02:21:02.048Z,9.00
2019-05-14T02:25:55.532Z,8.55
2019-05-14T02:30:57.525Z,8.30
2019-05-14T02:35:44.491Z,12.95
2019-05-14T02:40:40.337Z,7.08
2019-05-14T02:45:33.390Z,8.88
2019-05-14T02:50:29.514Z,6.30
2019-05-14T02:55:22.128Z,12.37
2019-05-14T03:00:19.125Z,9.78
2019-05-14T03:05:11.213Z,4.45
2019-05-14T03:10:09.624Z,9.20
2019-05-14T03:15:02.024Z,11.03
2019-05-14T03:19:59.964Z,10.72
2019-05-14T03:24:53.291Z,7.50
2019-05-14T03:29:49.577Z,9.95
2019-05-14T03:34:43.888Z,14.28
2019-05-14T03:39:39.667Z,10.47
2019-05-14T03:44:33.481Z,6.78
2019-05-14T03:49:28.893Z,9.13
2019-05-14T03:54:22.514Z,6.58
2019-05-14T03:59:19.678Z,7.58
2019-05-14T04:04:13.576Z,13.72
2019-05-14T04:09:09.725Z,5.57
2019-05-14T04:14:04.924Z,18.02
2019-05-14T04:19:01.598Z,6.72
2019-05-14T04:23:59.485Z,6.40
2019-05-14T04:28:53.780Z,7.78
2019-05-14T04:33:50.079Z,7.78
2019-05-14T04:38:43.980Z,7.08
2019-05-14T04:43:40.006Z,6.65
2019-05-14T04:48:37.620Z,8.17
2019-05-14T04:53:30.773Z,6.10
2019-05-14T04:58:24.285Z,8.03
2019-05-14T05:03:19.956Z,6.87
2019-05-14T05:08:14.474Z,9.00
2019-05-14T05:13:09.191Z,7.67
2019-05-14T05:18:03.059Z,9.13
2019-05-14T05:22:58.923Z,10.80
2019-05-14T05:27:51.777Z,7.77
2019-05-14T05:32:45.324Z,8.70
2019-05-14T05:37:38.799Z,8.55
2019-05-14T05:42:32.339Z,4.78
2019-05-14T05:47:28.547Z,5.23
2019-05-14T05:52:21.281Z,6.50
2019-05-14T05:57:15.177Z,7.33
2019-05-14T06:02:09.325Z,4.97
2019-05-14T06:07:03.554Z,6.28
2019-05-14T06:11:59.234Z,6.95
2019-05-14T06:16:52.578Z,8.28
2019-05-14T06:21:49.013Z,6.17
2019-05-14T06:26:42.259Z,8.08
2019-05-14T06:31:38.429Z,3.30
2019-05-14T06:36:31.198Z,3.70
2019-05-14T06:41:24.748Z,7.03
2019-05-14T06:46:19.512Z,5.70
2019-05-14T06:51:13.205Z,5.13
2019-05-14T06:56:08.147Z,9.73
2019-05-14T07:01:01.845Z,5.28
2019-05-14T07:05:55.701Z,9.73
2019-05-14T07:10:49.253Z,5.30
2019-05-14T07:15:42.800Z,3.40
2019-05-14T07:20:38.925Z,7.35
2019-05-14T07:25:31.540Z,5.57
2019-05-14T07:30:25.201Z,3.27
2019-05-14T07:35:18.901Z,3.90
2019-05-14T07:40:12.624Z,4.75
2019-05-14T07:45:06.749Z,4.17
2019-05-14T07:50:00.302Z,4.12
2019-05-14T07:54:53.922Z,2.12
2019-05-14T07:59:48.378Z,4.55
2019-05-14T08:04:42.480Z,6.72
2019-05-14T08:09:35.981Z,2.65
2019-05-14T08:14:39.249Z,3.25
2019-05-14T08:19:27.849Z,4.08
2019-05-14T08:24:26.646Z,2.12
2019-05-14T08:29:18.077Z,4.08
2019-05-14T08:34:11.477Z,2.70
2019-05-14T08:39:08.791Z,4.50
2019-05-14T08:44:02.086Z,3.76
2019-05-14T08:48:58.385Z,1.63
2019-05-14T08:53:50.833Z,2.02
2019-05-14T08:58:44.427Z,3.58
2019-05-14T09:03:39.297Z,3.53
2019-05-14T09:08:33.591Z,1.65
2019-05-14T09:13:28.920Z,3.02
2019-05-14T09:18:22.434Z,1.50
2019-05-14T09:23:16.014Z,1.57
2019-05-14T09:28:09.892Z,3.33
2019-05-14T09:33:03.441Z,1.98
2019-05-14T09:37:59.185Z,3.27
2019-05-14T09:42:52.515Z,1.98
2019-05-14T09:47:49.997Z,2.25
2019-05-14T09:52:41.517Z,2.02
2019-05-14T09:57:35.077Z,2.33
2019-05-14T10:02:28.707Z,2.25
2019-05-14T10:07:22.538Z,2.45
2019-05-14T10:12:16.116Z,1.87
2019-05-14T10:17:10.025Z,2.02
2019-05-14T10:22:03.587Z,3.87
2019-05-14T10:26:58.547Z,2.70
2019-05-14T10:31:52.549Z,2.05
2019-05-14T10:36:52.088Z,2.17
2019-05-14T10:41:51.232Z,1.57
2019-05-14T10:46:45.127Z,1.42
2019-05-14T10:51:39.010Z,2.93
2019-05-14T10:56:53.164Z,3.08
2019-05-14T11:01:53.091Z,2.37
2019-05-14T11:12:19.295Z,2.60
2019-05-14T11:17:57.608Z,4.92
2019-05-14T11:28:45.067Z,1.82
2019-05-14T11:33:45.611Z,2.37
2019-05-14T11:39:28.766Z,3.60
2019-05-14T11:45:01.118Z,2.13
2019-05-14T11:50:10.177Z,1.75
2019-05-14T11:55:05.486Z,2.17
2019-05-14T11:59:59.238Z,1.80
2019-05-14T12:04:53.109Z,1.85
2019-05-14T12:09:48.360Z,2.15
2019-05-14T12:14:41.990Z,1.95
2019-05-14T12:19:35.872Z,2.40
2019-05-14T12:24:29.546Z,2.57
2019-05-14T12:29:23.163Z,2.85
2019-05-14T12:34:18.526Z,1.45
2019-05-14T12:39:13.513Z,1.85
2019-05-14T12:44:09.373Z,2.12
2019-05-14T12:49:02.482Z,2.87
2019-05-14T12:53:58.324Z,1.80
2019-05-14T12:58:51.560Z,1.95
2019-05-14T13:03:45.441Z,1.57
2019-05-14T13:08:40.199Z,1.25
2019-05-14T13:13:42.322Z,2.02
2019-05-14T13:18:33.070Z,1.32
2019-05-14T13:23:29.033Z,2.02
2019-05-14T13:28:21.964Z,1.40
2019-05-14T13:33:21.737Z,1.63
2019-05-14T13:38:15.376Z,1.62
2019-05-14T13:43:09.842Z,3.20
2019-05-14T13:48:04.522Z,1.55
2019-05-14T13:53:06.928Z,1.70
2019-05-14T13:57:54.460Z,1.53
2019-05-14T14:02:50.209Z,2.37
2019-05-14T14:07:48.543Z,4.53
2019-05-14T14:12:42.325Z,1.40
2019-05-14T14:17:38.782Z,1.45
2019-05-14T14:22:31.123Z,1.72
2019-05-14T14:27:24.753Z,3.13
2019-05-14T14:32:18.926Z,1.37
2019-05-14T14:37:15.665Z,1.55
2019-05-14T14:42:09.234Z,2.75
2019-05-14T14:47:23.785Z,1.30
2019-05-14T14:52:19.973Z,2.02
2019-05-14T14:57:13.892Z,5.20
2019-05-14T15:02:10.199Z,1.95
2019-05-14T15:07:02.920Z,2.90
2019-05-14T15:23:09.869Z,3.70
2019-05-14T15:28:02.296Z,4.03
2019-05-14T15:32:55.839Z,2.85
2019-05-14T15:37:49.328Z,7.20
2019-05-14T15:42:44.792Z,7.83
2019-05-14T15:47:39.044Z,3.17
2019-05-14T15:52:32.830Z,3.13
2019-05-14T15:57:28.791Z,1.82
2019-05-14T16:02:21.613Z,2.87
2019-05-14T16:07:15.452Z,4.97
2019-05-14T16:12:09.629Z,2.23
2019-05-14T16:17:03.306Z,2.67
2019-05-14T16:21:58.631Z,2.93
2019-05-14T16:26:51.984Z,1.87
2019-05-14T16:31:45.777Z,2.62
2019-05-14T16:36:41.344Z,2.57
2019-05-14T16:41:34.994Z,2.63
2019-05-14T16:46:29.020Z,6.10
2019-05-14T16:51:22.872Z,3.13
2019-05-14T16:56:19.049Z,5.07
2019-05-14T17:01:11.928Z,3.02
2019-05-14T17:06:05.612Z,2.73
2019-05-14T17:10:59.153Z,2.45
2019-05-14T17:15:52.640Z,2.92
2019-05-14T17:20:48.623Z,5.30
2019-05-14T17:25:41.421Z,4.23
2019-05-14T17:30:34.970Z,2.92
2019-05-14T17:35:29.798Z,2.60
2019-05-14T17:40:24.728Z,3.70
2019-05-14T17:45:19.217Z,2.50
2019-05-14T17:50:12.863Z,5.04
2019-05-14T17:55:11.545Z,1.65
2019-05-14T18:00:01.911Z,3.37
2019-05-14T18:04:57.057Z,5.47
2019-05-14T18:09:50.632Z,3.87
2019-05-14T18:14:44.165Z,3.05
2019-05-14T18:19:38.119Z,4.63
2019-05-14T18:24:31.932Z,3.92
2019-05-14T18:29:25.464Z,3.17
2019-05-14T18:34:19.040Z,4.62
2019-05-14T18:39:12.866Z,3.15
2019-05-14T18:44:08.418Z,2.65
2019-05-14T18:49:02.145Z,3.87
2019-05-14T18:53:58.483Z,2.67
2019-05-14T18:58:52.130Z,1.77
2019-05-14T19:03:45.736Z,3.08
2019-05-14T19:08:39.580Z,3.72
2019-05-14T19:13:33.271Z,1.95
2019-05-14T19:18:28.673Z,3.90
2019-05-14T19:23:22.323Z,4.25
2019-05-14T19:28:15.919Z,2.20
2019-05-14T19:33:09.495Z,3.20
2019-05-14T19:38:03.561Z,1.57
2019-05-14T19:42:57.099Z,2.05
2019-05-14T19:47:50.646Z,1.67
2019-05-14T19:52:44.120Z,1.87
2019-05-14T19:57:38.422Z,1.35
2019-05-14T20:02:32.145Z,3.55
2019-05-14T20:07:27.897Z,1.77
2019-05-14T20:12:21.205Z,1.10
2019-05-14T20:17:14.830Z,1.67
2019-05-14T20:22:08.664Z,1.87
2019-05-14T20:27:07.818Z,2.42
2019-05-14T20:32:01.207Z,2.55
2019-05-14T20:36:52.520Z,3.08
2019-05-14T20:41:46.337Z,2.55
2019-05-14T20:46:39.884Z,3.95
2019-05-14T20:51:33.419Z,5.97
2019-05-14T20:56:28.453Z,1.82
2019-05-14T21:01:22.170Z,2.02
2019-05-14T21:06:15.711Z,3.55
2019-05-14T21:11:09.188Z,4.05
2019-05-14T21:16:03.001Z,1.70
2019-05-14T21:20:56.475Z,3.95
2019-05-14T21:25:50.016Z,2.65
2019-05-14T21:30:43.501Z,4.35
2019-05-14T21:35:39.007Z,2.50
2019-05-14T21:40:32.760Z,3.60
2019-05-14T21:45:26.241Z,2.27
2019-05-14T21:50:19.776Z,4.92
2019-05-14T21:55:13.452Z,2.17
2019-05-14T22:00:18.444Z,4.35
2019-05-14T22:05:11.353Z,4.00
2019-05-14T22:10:07.235Z,4.10
2019-05-14T22:15:00.708Z,4.42
2019-05-14T22:19:54.180Z,5.05
2019-05-14T22:24:48.904Z,4.95
2019-05-14T22:29:42.871Z,4.47
2019-05-14T22:34:38.398Z,4.95
2019-05-14T22:39:31.981Z,4.70
2019-05-14T22:44:25.584Z,6.37
2019-05-14T22:49:19.436Z,3.90
2019-05-14T22:54:12.969Z,6.10
2019-05-14T22:59:06.468Z,2.95
2019-05-14T23:04:00.004Z,4.62
2019-05-14T23:08:53.568Z,5.33
2019-05-14T23:13:48.786Z,6.47
2019-05-14T23:18:42.537Z,4.35
2019-05-14T23:23:36.060Z,7.80
2019-05-14T23:28:41.852Z,10.35
2019-05-14T23:33:24.750Z,7.72
2019-05-14T23:38:19.037Z,5.03
2019-05-14T23:43:12.727Z,9.80
2019-05-14T23:48:09.211Z,5.75
2019-05-14T23:53:02.068Z,7.15
2019-05-14T23:57:55.537Z,5.37
